Snover, Michigan
Current Conditions -  °F | °C
As of 10:35 PM on Monday 20 Oct 2014 (Local Time) from KCFS Reporting Station
Overcast Overcast  
Wind Chill:   Ceiling: 2000
Heat Index: 10°   Visibility: 10mi
Dew Point:   Wind: 7mph
Humidity: 84%   Direction: 320°NW
Pressure: 29.87"   Gusts: NA
Location:  43.46°N, 82.97°W
Report Text: KCFS 210235Z AUTO 32006KT 10SM OVC020 10/07 A2987 RMK AO2 T00970072
Loading
Personal Weather Stations






























Interactive Weather Map
Tropical Storm Tracking
New forecast layout! Learn more

10-Day Weather Forecast

Advertisements
Track Severe Weather on mobile